Hovedside
METAR-TAF:

METAR-TAF

Lufthavner :

Mora–Siljan

Mora, Sverige

breddegrad: 60-57-31N, lengdegrad: 14-30-40E, høyde over havet: 193 m

Gjeldene værobservasjon

Denne rapporten ble laget for 21 minutter siden, klokken 04:50 UTC
Vind 6 kt fra Nord-nordvest
Temperatur 5°C
Luftfuktighet 65%
Trykk 1019 hPa
Sikt 10 km eller mer

METAR: ESKM 250450Z AUTO 33006KT 9999 NCD 05/M01 Q1019

Tid: 07:11 (05:11 UTC)


TAF: fraværende

Værobservasjoner og værvarsel for over 4000 flyplasser (METAR- og TAF-rapporter).

Tilgjengelige stasjoner er representert av de røde og gule prikkene på kartet.

Hold musepekeren over prikken for å se navnet på stasjonen.

Klikk så for å se værobservasjoner og -varsler.

For å forandre kartet kan du klikke på den grønne knappen med svart kryss for å zoome inn, på den grønne knappen med strek for å zoome ut, eller på de grønne pilene for å se tilstøtende kart.


METAR-TAF: